Terminal Aerodrome Forecast
Issued by NWS

Home | Current Version | Previous Version | Text Only | Print | Product List | Glossary Off
Versions: 1 2 3 4 5 6 7 8 9 10 11 12 13 14 15 16 17 18 19 20 21 22 23 24 25 26 27

000
FTUS43 KMPX 282300
TAFAXN
TAF
KAXN 282337Z 2900/2924 36012G19KT P6SM SCT070 BKN250
     FM290200 02011KT P6SM SCT018 OVC035
      TEMPO 2904/2907 6SM -SHRA BKN014 OVC030
     FM290700 03013KT 6SM -RA BR BKN006 OVC012
     FM291200 05012KT P6SM BKN007 OVC015
     FM291600 06012KT P6SM SCT007 OVC020
     FM292100 08012KT P6SM SCT020 BKN040=

USA.gov is the U.S. government's official web portal to all federal, state and local government web resources and services.